Eyr Myken — LCQU — position and weather

sailwx.info

Track history (hours):
 
Tides and Currents Weather Stations Pressure Air Temp Water Temp Dewpoint Dewpoint Depression Visibility Wind Speed Wind Dir Waves Ship Positions

Eyr Myken

Last reported at 2017-Jul-22 00:30 UTC. Time now 2017-Jul-22 00:38 UTC.
Position N 66°39' E 013°05'.

Length 18 m.

Type: Medical transport. MMSI: 257054000.

Date/timePositionNaut miles runAvg speedWind from/ knotsBaromVisibWave heightAir tempDewpointWater temp
2017-Jul-22 00:30N 66°39' E 013°05'0 0.0
2017-Jul-22 00:00N 66°39' E 013°05'0 0.0
2017-Jul-21 23:29N 66°39' E 013°05'0 0.0
2017-Jul-21 23:00N 66°39' E 013°05'0 0.0
2017-Jul-21 22:30N 66°39' E 013°05'0 0.0
2017-Jul-21 22:00N 66°39' E 013°05'0 0.0
2017-Jul-21 21:30N 66°39' E 013°05'0 0.0
2017-Jul-21 21:00N 66°39' E 013°05'0 0.0
2017-Jul-21 20:30N 66°39' E 013°05'0 0.0
2017-Jul-21 20:00N 66°39' E 013°05'0 0.0
2017-Jul-21 19:29N 66°39' E 013°05'0 0.0
2017-Jul-21 19:00N 66°39' E 013°05'0 0.0
2017-Jul-21 18:30N 66°39' E 013°05'4 7.3
2017-Jul-21 18:00N 66°41' E 013°12'713.1
2017-Jul-21 17:29N 66°37' E 012°60'0 0.0
2017-Jul-21 17:00N 66°37' E 012°59'918.1
2017-Jul-21 16:30N 66°43' E 013°17'611.4
2017-Jul-21 16:00N 66°39' E 013°05'0 0.0
2017-Jul-21 15:30N 66°39' E 013°05'0 0.0
2017-Jul-21 15:00N 66°39' E 013°05'0 0.0
2017-Jul-21 14:30N 66°39' E 013°05'0 0.0
2017-Jul-21 14:00N 66°39' E 013°05'0 0.0
2017-Jul-21 13:30N 66°39' E 013°05'0 0.0
2017-Jul-21 13:00N 66°39' E 013°05'0 0.0
2017-Jul-21 12:30N 66°39' E 013°05'0 0.0
2017-Jul-21 12:00N 66°39' E 013°05'0 0.0
2017-Jul-21 11:30N 66°39' E 013°05'0 0.0
2017-Jul-21 11:00N 66°39' E 013°05'0 0.0
2017-Jul-21 10:30N 66°39' E 013°05'0 0.0
2017-Jul-21 09:59N 66°39' E 013°05'0 0.0
2017-Jul-21 09:30N 66°39' E 013°05'0 0.0
2017-Jul-21 09:00N 66°39' E 013°05'0 0.0
2017-Jul-21 08:30N 66°39' E 013°05'0 0.0
2017-Jul-21 08:00N 66°39' E 013°05'0 0.0
2017-Jul-21 07:30N 66°39' E 013°05'0 0.0
2017-Jul-21 07:00N 66°39' E 013°05'0 0.0
2017-Jul-21 06:30N 66°39' E 013°05'0 0.0
2017-Jul-21 06:00N 66°39' E 013°05'0 0.0
2017-Jul-21 05:30N 66°39' E 013°05'0 0.0
2017-Jul-21 05:00N 66°39' E 013°05'0 0.0
2017-Jul-21 04:30N 66°39' E 013°05'0 0.0
2017-Jul-21 04:00N 66°39' E 013°05'0 0.0
2017-Jul-21 03:30N 66°39' E 013°05'0 0.0
2017-Jul-21 03:00N 66°39' E 013°05'0 0.0
2017-Jul-21 02:30N 66°39' E 013°05'0 0.0
2017-Jul-21 02:00N 66°39' E 013°05'0 0.0
2017-Jul-21 01:30N 66°39' E 013°05'0 0.0
2017-Jul-21 01:00N 66°39' E 013°05'0 0.0
2017-Jul-21 00:30N 66°39' E 013°05'0 0.0
2017-Jul-21 00:00N 66°39' E 013°05'0 0.0
2017-Jul-20 23:29N 66°39' E 013°05'0 0.0
2017-Jul-20 23:00N 66°39' E 013°05'1223.4
2017-Jul-20 22:30N 66°28' E 013°03'816.6
2017-Jul-20 22:00N 66°22' E 012°48'5 9.2
2017-Jul-20 21:30N 66°22' E 012°37'1021.0
2017-Jul-20 21:00N 66°23' E 013°03'1020.6
2017-Jul-20 20:30N 66°33' E 013°02'612.7
2017-Jul-20 20:01N 66°39' E 013°05'0 0.0
2017-Jul-20 19:30N 66°39' E 013°05'0 0.0
2017-Jul-20 19:00N 66°39' E 013°05'0 0.0
2017-Jul-20 18:30N 66°39' E 013°05'0 0.0
2017-Jul-20 18:00N 66°39' E 013°05'611.7
2017-Jul-20 17:30N 66°43' E 013°17'3 6.6
2017-Jul-20 17:00N 66°41' E 013°10'3 4.9
2017-Jul-20 16:29N 66°39' E 013°05'0 0.0
2017-Jul-20 16:00N 66°39' E 013°05'0 0.0
2017-Jul-20 15:30N 66°39' E 013°05'0 0.0
2017-Jul-20 15:00N 66°39' E 013°05'0 0.0
2017-Jul-20 13:59N 66°39' E 013°05'0 0.0
2017-Jul-20 13:29N 66°39' E 013°05'0 0.0
2017-Jul-20 13:00N 66°39' E 013°05'0 0.0
2017-Jul-20 12:29N 66°39' E 013°05'0 0.0
2017-Jul-20 12:00N 66°39' E 013°05'0 0.0
2017-Jul-20 11:30N 66°39' E 013°05'0 0.0
2017-Jul-20 10:59N 66°39' E 013°05'0 0.0
2017-Jul-20 10:29N 66°39' E 013°05'0 0.0
2017-Jul-20 10:00N 66°39' E 013°05'0 0.0
2017-Jul-20 09:29N 66°39' E 013°05'0 0.0
2017-Jul-20 09:00N 66°39' E 013°05'0 0.0
2017-Jul-20 08:30N 66°39' E 013°05'0 0.0
2017-Jul-20 08:00N 66°39' E 013°05'0 0.0
2017-Jul-20 07:30N 66°39' E 013°05'0 0.0
2017-Jul-20 07:00N 66°39' E 013°05'0 0.0
2017-Jul-20 06:30N 66°39' E 013°05'0 0.0
2017-Jul-20 06:00N 66°39' E 013°05'0 0.0
2017-Jul-20 05:30N 66°39' E 013°05'0 0.0
2017-Jul-20 05:00N 66°39' E 013°05'0 0.0
2017-Jul-20 04:30N 66°39' E 013°05'0 0.0
2017-Jul-20 04:00N 66°39' E 013°05'0 0.0
2017-Jul-20 03:30N 66°39' E 013°05'0 0.0
2017-Jul-20 03:00N 66°39' E 013°05'0 0.0
2017-Jul-20 02:30N 66°39' E 013°05'0 0.0
2017-Jul-20 02:00N 66°39' E 013°05'0 0.0
2017-Jul-20 01:30N 66°39' E 013°05'0 0.0
2017-Jul-20 01:00N 66°39' E 013°05'0 0.0
2017-Jul-20 00:30N 66°39' E 013°05'0 0.0
2017-Jul-20 00:00N 66°39' E 013°05'0 0.0
2017-Jul-19 23:30N 66°39' E 013°05'0 0.0
2017-Jul-19 23:00N 66°39' E 013°05'0 0.0
2017-Jul-19 22:30N 66°39' E 013°05'0 0.0
2017-Jul-19 22:00N 66°39' E 013°05'0 0.0
2017-Jul-19 21:30N 66°39' E 013°05'0 0.1
2017-Jul-19 21:00N 66°39' E 013°05'3 6.2
2017-Jul-19 20:30N 66°42' E 013°07'1122.2
2017-Jul-19 20:00N 66°34' E 012°50'0 0.0
2017-Jul-19 19:30N 66°34' E 012°50'816.3
2017-Jul-19 19:00N 66°39' E 013°05'0 0.0
2017-Jul-19 18:30N 66°39' E 013°05'0 0.0
2017-Jul-19 18:00N 66°39' E 013°05'4 9.1
2017-Jul-19 17:30N 66°35' E 013°06'612.6
2017-Jul-19 17:00N 66°29' E 013°14'611.3
2017-Jul-19 16:30N 66°35' E 013°12'4 7.2
2017-Jul-19 16:00N 66°38' E 013°18'810.2
2017-Jul-19 15:10N 66°33' E 013°00'528.7
2017-Jul-19 15:00N 66°31' E 012°49'1427.5
2017-Jul-19 14:30N 66°22' E 012°23'0 0.5
2017-Jul-19 14:00N 66°22' E 012°22'0 0.0
2017-Jul-19 13:30N 66°22' E 012°22'510.0
2017-Jul-19 13:00N 66°26' E 012°30'1021.0
2017-Jul-19 12:31N 66°36' E 012°40'0 0.0
2017-Jul-19 12:01N 66°36' E 012°40'4 7.8
2017-Jul-19 11:30N 66°34' E 012°48'1 1.7
2017-Jul-19 11:00N 66°34' E 012°50'3 5.2
2017-Jul-19 10:30N 66°35' E 012°56'0 0.0
2017-Jul-19 10:00N 66°35' E 012°56'1 2.2
2017-Jul-19 09:30N 66°34' E 012°59'2 4.1
2017-Jul-19 09:00N 66°36' E 013°01'917.5
2017-Jul-19 08:30N 66°43' E 013°17'611.6
2017-Jul-19 08:00N 66°39' E 013°05'0 0.0
2017-Jul-19 07:30N 66°39' E 013°05'0 0.0
2017-Jul-19 07:00N 66°39' E 013°05'0 0.0
2017-Jul-19 06:30N 66°39' E 013°05'0 0.0
2017-Jul-19 06:00N 66°39' E 013°05'0 0.0
2017-Jul-19 05:29N 66°39' E 013°05'0 0.0
2017-Jul-19 05:00N 66°39' E 013°05'0 0.0
2017-Jul-19 04:30N 66°39' E 013°05'0 0.0
2017-Jul-19 04:00N 66°39' E 013°05'0 0.0
2017-Jul-19 03:29N 66°39' E 013°05'0 0.0
2017-Jul-19 03:00N 66°39' E 013°05'0 0.0
2017-Jul-19 02:30N 66°39' E 013°05'0 0.0
2017-Jul-19 02:00N 66°39' E 013°05'0 0.0
2017-Jul-19 01:30N 66°39' E 013°05'0 0.0
2017-Jul-19 01:00N 66°39' E 013°05'0 0.0
2017-Jul-19 00:29N 66°39' E 013°05'0 0.0
2017-Jul-19 00:00N 66°39' E 013°05'0 0.0
2017-Jul-18 23:30N 66°39' E 013°05'0 0.0
2017-Jul-18 23:00N 66°39' E 013°05'0 0.0
2017-Jul-18 22:30N 66°39' E 013°05'0 0.0
2017-Jul-18 21:59N 66°39' E 013°05'0 0.0
2017-Jul-18 21:30N 66°39' E 013°05'0 0.0
2017-Jul-18 21:00N 66°39' E 013°05'0 0.0
2017-Jul-18 20:30N 66°39' E 013°05'0 0.0
2017-Jul-18 20:00N 66°39' E 013°05'0 0.0
2017-Jul-18 19:30N 66°39' E 013°05'0 0.0
2017-Jul-18 19:00N 66°39' E 013°05'0 0.0
2017-Jul-18 18:30N 66°39' E 013°05'0 0.0
2017-Jul-18 18:00N 66°39' E 013°05'0 0.0
2017-Jul-18 17:30N 66°39' E 013°05'0 0.0
2017-Jul-18 17:00N 66°39' E 013°05'0 0.0
2017-Jul-18 16:30N 66°39' E 013°05'0 0.0
2017-Jul-18 15:59N 66°39' E 013°05'0 0.0
2017-Jul-18 15:30N 66°39' E 013°05'0 0.0
2017-Jul-18 15:00N 66°39' E 013°05'6 5.8
2017-Jul-18 14:00N 66°43' E 013°17'611.5
2017-Jul-18 13:30N 66°39' E 013°05'0 0.0
2017-Jul-18 13:00N 66°39' E 013°05'0 0.0
2017-Jul-18 12:30N 66°39' E 013°05'2 3.5
2017-Jul-18 12:00N 66°40' E 013°01'1427.7
2017-Jul-18 11:30N 66°46' E 012°29'0 0.5
2017-Jul-18 11:00N 66°46' E 012°29'1122.0
2017-Jul-18 10:30N 66°36' E 012°40'0 0.7
2017-Jul-18 10:00N 66°36' E 012°40'0 0.0
2017-Jul-18 09:30N 66°36' E 012°40'0 0.0
2017-Jul-18 09:00N 66°36' E 012°40'0 0.1
2017-Jul-18 08:30N 66°36' E 012°40'5 9.3
2017-Jul-18 08:00N 66°34' E 012°50'0 0.0
2017-Jul-18 07:30N 66°34' E 012°50'1020.9
2017-Jul-18 07:00N 66°42' E 013°05'3 5.6
2017-Jul-18 06:30N 66°39' E 013°05'0 0.0
2017-Jul-18 06:00N 66°39' E 013°05'0 0.0
2017-Jul-18 05:30N 66°39' E 013°05'0 0.0
2017-Jul-18 05:00N 66°39' E 013°05'0 0.0
2017-Jul-18 04:30N 66°39' E 013°05'0 0.0
2017-Jul-18 04:00N 66°39' E 013°05'0 0.0
2017-Jul-18 03:30N 66°39' E 013°05'0 0.0
2017-Jul-18 03:00N 66°39' E 013°05'0 0.0
2017-Jul-18 02:30N 66°39' E 013°05'0 0.0
2017-Jul-18 02:00N 66°39' E 013°05'0 0.0
2017-Jul-18 01:30N 66°39' E 013°05'0 0.0
2017-Jul-18 01:00N 66°39' E 013°05'0 0.0
2017-Jul-18 00:31N 66°39' E 013°05'0 0.0
2017-Jul-18 00:00N 66°39' E 013°05'0 0.0
2017-Jul-17 23:31N 66°39' E 013°05'0 0.0
2017-Jul-17 23:01N 66°39' E 013°05'0 0.0
2017-Jul-17 22:30N 66°39' E 013°05'0 0.0
2017-Jul-17 22:00N 66°39' E 013°05'0 0.0
2017-Jul-17 21:29N 66°39' E 013°05'0 0.0
2017-Jul-17 21:00N 66°39' E 013°05'0 0.0
2017-Jul-17 20:30N 66°39' E 013°05'0 0.0
2017-Jul-17 19:59N 66°39' E 013°05'0 0.0
2017-Jul-17 19:30N 66°39' E 013°05'0 0.0
2017-Jul-17 19:00N 66°39' E 013°05'0 0.0
2017-Jul-17 18:30N 66°39' E 013°05'0 0.0
2017-Jul-17 18:01N 66°39' E 013°05'0 0.0
2017-Jul-17 17:30N 66°39' E 013°05'0 0.0
2017-Jul-17 17:00N 66°39' E 013°05'0 0.0
2017-Jul-17 16:30N 66°39' E 013°05'0 0.0
2017-Jul-17 16:00N 66°39' E 013°05'0 0.0
2017-Jul-17 15:31N 66°39' E 013°05'0 0.0
2017-Jul-17 15:01N 66°39' E 013°05'0 0.0
2017-Jul-17 14:30N 66°39' E 013°05'0 0.0
2017-Jul-17 14:00N 66°39' E 013°05'0 0.0
2017-Jul-17 13:30N 66°39' E 013°05'0 0.0
2017-Jul-17 13:00N 66°39' E 013°05'0 0.0
2017-Jul-17 12:30N 66°39' E 013°05'0 0.0
2017-Jul-17 12:00N 66°39' E 013°05'0 0.0
2017-Jul-17 11:30N 66°39' E 013°05'0 0.0
2017-Jul-17 11:00N 66°39' E 013°05'0 0.0
2017-Jul-17 10:30N 66°39' E 013°05'0 0.0
2017-Jul-17 10:00N 66°39' E 013°05'611.6
2017-Jul-17 09:30N 66°43' E 013°17'611.3
2017-Jul-17 09:00N 66°39' E 013°05'0 0.0
2017-Jul-17 08:30N 66°39' E 013°05'0 0.0
2017-Jul-17 08:00N 66°39' E 013°05'0 0.0
2017-Jul-17 07:30N 66°39' E 013°05'0 0.0
2017-Jul-17 07:00N 66°39' E 013°05'0 0.0
2017-Jul-17 06:30N 66°39' E 013°05'0 0.0
2017-Jul-17 06:00N 66°39' E 013°05'0 0.0
2017-Jul-17 05:30N 66°39' E 013°05'0 0.0
2017-Jul-17 05:00N 66°39' E 013°05'0 0.0
2017-Jul-17 04:30N 66°39' E 013°05'0 0.0
2017-Jul-17 04:00N 66°39' E 013°05'0 0.0
2017-Jul-17 03:30N 66°39' E 013°05'0 0.0
2017-Jul-17 02:59N 66°39' E 013°05'0 0.0
2017-Jul-17 02:30N 66°39' E 013°05'0 0.0
2017-Jul-17 02:00N 66°39' E 013°05'0 0.0
2017-Jul-17 01:30N 66°39' E 013°05'0 0.0
2017-Jul-17 01:00N 66°39' E 013°05'0 0.0
2017-Jul-17 00:30N 66°39' E 013°05'0 0.0
2017-Jul-17 00:00N 66°39' E 013°05'0 0.0
2017-Jul-16 23:30N 66°39' E 013°05'0 0.0
2017-Jul-16 23:00N 66°39' E 013°05'0 0.0
2017-Jul-16 22:30N 66°39' E 013°05'0 0.0
2017-Jul-16 22:00N 66°39' E 013°05'0 0.0
2017-Jul-16 21:29N 66°39' E 013°05'0 0.0
2017-Jul-16 21:00N 66°39' E 013°05'0 0.0
2017-Jul-16 20:30N 66°39' E 013°05'0 0.0
2017-Jul-16 20:00N 66°39' E 013°05'0 0.0
2017-Jul-16 19:30N 66°39' E 013°05'0 0.0
2017-Jul-16 19:00N 66°39' E 013°05'0 0.0
2017-Jul-16 18:30N 66°39' E 013°05'0 0.0
2017-Jul-16 18:00N 66°39' E 013°05'0 0.0
2017-Jul-16 17:30N 66°39' E 013°05'0 0.0
2017-Jul-16 17:00N 66°39' E 013°05'0 0.0
2017-Jul-16 16:30N 66°39' E 013°05'0 0.0
2017-Jul-16 16:00N 66°39' E 013°05'0 0.0
2017-Jul-16 15:29N 66°39' E 013°05'0 0.0
2017-Jul-16 15:00N 66°39' E 013°05'5 9.1
2017-Jul-16 14:30N 66°43' E 013°13'918.9
2017-Jul-16 14:00N 66°33' E 013°11'1 2.7
2017-Jul-16 13:30N 66°33' E 013°08'713.9
2017-Jul-16 13:00N 66°34' E 012°50'0 0.0
2017-Jul-16 12:30N 66°34' E 012°50'0 0.0
2017-Jul-16 12:00N 66°34' E 012°50'4 8.3
2017-Jul-16 11:30N 66°37' E 012°57'1019.0
2017-Jul-16 11:00N 66°42' E 013°17'611.3
2017-Jul-16 10:30N 66°39' E 013°05'0 0.0
2017-Jul-16 10:00N 66°39' E 013°05'0 0.0
2017-Jul-16 09:29N 66°39' E 013°05'0 0.0
2017-Jul-16 09:00N 66°39' E 013°05'0 0.0
2017-Jul-16 08:30N 66°39' E 013°05'0 0.0
2017-Jul-16 08:00N 66°39' E 013°05'0 0.0
2017-Jul-16 07:30N 66°39' E 013°05'0 0.0
2017-Jul-16 07:00N 66°39' E 013°05'0 0.0
2017-Jul-16 06:30N 66°39' E 013°05'0 0.0
2017-Jul-16 06:00N 66°39' E 013°05'0 0.0
2017-Jul-16 05:29N 66°39' E 013°05'0 0.0
2017-Jul-16 04:59N 66°39' E 013°05'0 0.0
2017-Jul-16 04:30N 66°39' E 013°05'0 0.0
2017-Jul-16 03:59N 66°39' E 013°05'0 0.0
2017-Jul-16 03:30N 66°39' E 013°05'0 0.0
2017-Jul-16 03:00N 66°39' E 013°05'0 0.0
2017-Jul-16 02:29N 66°39' E 013°05'0 0.0
2017-Jul-16 02:00N 66°39' E 013°05'0 0.0
2017-Jul-16 01:30N 66°39' E 013°05'0 0.0
2017-Jul-16 01:00N 66°39' E 013°05'0 0.0
2017-Jul-16 00:30N 66°39' E 013°05'0 0.0
2017-Jul-16 00:00N 66°39' E 013°05'0 0.0
2017-Jul-15 23:29N 66°39' E 013°05'0 0.0
2017-Jul-15 23:00N 66°39' E 013°05'0 0.0
2017-Jul-15 22:30N 66°39' E 013°05'0 0.0
2017-Jul-15 22:00N 66°39' E 013°05'0 0.0
2017-Jul-15 21:30N 66°39' E 013°05'0 0.0
2017-Jul-15 21:00N 66°39' E 013°05'0 0.0
2017-Jul-15 20:29N 66°39' E 013°05'0 0.0
2017-Jul-15 19:59N 66°39' E 013°05'0 0.0
2017-Jul-15 19:30N 66°39' E 013°05'0 0.0
2017-Jul-15 19:00N 66°39' E 013°05'0 0.0
2017-Jul-15 18:30N 66°39' E 013°05'0 0.0
2017-Jul-15 18:00N 66°39' E 013°05'0 0.0
2017-Jul-15 17:29N 66°39' E 013°05'0 0.0
2017-Jul-15 17:00N 66°39' E 013°05'0 0.0
2017-Jul-15 16:30N 66°39' E 013°05'0 0.0
2017-Jul-15 15:59N 66°39' E 013°05'0 0.0
2017-Jul-15 15:30N 66°39' E 013°05'0 0.0
2017-Jul-15 15:00N 66°39' E 013°05'0 0.0
2017-Jul-15 14:00N 66°39' E 013°05'4 7.4
2017-Jul-15 13:30N 66°36' E 013°10'611.4
2017-Jul-15 13:00N 66°31' E 013°13'1224.9
2017-Jul-15 12:30N 66°40' E 012°53'1121.8
2017-Jul-15 12:00N 66°46' E 012°29'0 0.0
2017-Jul-15 11:30N 66°46' E 012°29'0 0.0
2017-Jul-15 11:00N 66°46' E 012°29'612.0
2017-Jul-15 10:30N 66°46' E 012°44'1326.2
2017-Jul-15 09:59N 66°43' E 013°17'611.7
2017-Jul-15 09:30N 66°39' E 013°05'0 0.0
2017-Jul-15 09:00N 66°39' E 013°05'0 0.0
2017-Jul-15 08:30N 66°39' E 013°05'0 0.0
2017-Jul-15 08:00N 66°39' E 013°05'0 0.0
2017-Jul-15 07:30N 66°39' E 013°05'0 0.0
2017-Jul-15 07:00N 66°39' E 013°05'0 0.0
2017-Jul-15 06:30N 66°39' E 013°05'0 0.0
2017-Jul-15 06:00N 66°39' E 013°05'0 0.0
2017-Jul-15 05:30N 66°39' E 013°05'0 0.0
2017-Jul-15 05:00N 66°39' E 013°05'0 0.0
2017-Jul-15 04:30N 66°39' E 013°05'0 0.0
2017-Jul-15 04:00N 66°39' E 013°05'0 0.0
2017-Jul-15 03:30N 66°39' E 013°05'0 0.0
2017-Jul-15 03:00N 66°39' E 013°05'0 0.0
2017-Jul-15 02:30N 66°39' E 013°05'0 0.0
2017-Jul-15 02:00N 66°39' E 013°05'0 0.0
2017-Jul-15 01:30N 66°39' E 013°05'0 0.0
2017-Jul-15 01:00N 66°39' E 013°05'0 0.0
2017-Jul-15 00:30N 66°39' E 013°05'0 0.0
2017-Jul-15 00:00N 66°39' E 013°05'0 0.0
2017-Jul-14 23:30N 66°39' E 013°05'0 0.0
2017-Jul-14 23:00N 66°39' E 013°05'0 0.0
2017-Jul-14 22:30N 66°39' E 013°05'0 0.0
2017-Jul-14 22:00N 66°39' E 013°05'0 0.0
2017-Jul-14 21:30N 66°39' E 013°05'0 0.0
2017-Jul-14 21:00N 66°39' E 013°05'0 0.0
2017-Jul-14 20:30N 66°39' E 013°05'0 0.0
2017-Jul-14 20:00N 66°39' E 013°05'0 0.0
2017-Jul-14 19:30N 66°39' E 013°05'0 0.0
2017-Jul-14 19:00N 66°39' E 013°05'0 0.0
2017-Jul-14 18:30N 66°39' E 013°05'0 0.0
2017-Jul-14 18:00N 66°39' E 013°05'0 0.0
2017-Jul-14 17:30N 66°39' E 013°05'0 0.0
2017-Jul-14 17:00N 66°39' E 013°05'0 0.0
2017-Jul-14 16:30N 66°39' E 013°05'0 0.0
2017-Jul-14 16:00N 66°39' E 013°05'0 0.0
2017-Jul-14 15:30N 66°39' E 013°05'0 0.0
2017-Jul-14 15:00N 66°39' E 013°05'0 0.0
2017-Jul-14 14:30N 66°39' E 013°05'0 0.0
2017-Jul-14 14:00N 66°39' E 013°05'0 0.0
2017-Jul-14 11:28N 66°39' E 013°05'0 0.0
2017-Jul-14 11:00N 66°39' E 013°05'0 0.0
2017-Jul-14 10:30N 66°39' E 013°05'0 0.0
2017-Jul-14 10:00N 66°39' E 013°05'0 0.0
2017-Jul-14 09:30N 66°39' E 013°05'0 0.0
2017-Jul-14 09:00N 66°39' E 013°05'0 0.0
2017-Jul-14 08:30N 66°39' E 013°05'0 0.0
2017-Jul-14 08:00N 66°39' E 013°05'0 0.0
2017-Jul-14 07:30N 66°39' E 013°05'0 0.0
2017-Jul-14 07:00N 66°39' E 013°05'0 0.0
2017-Jul-14 06:30N 66°39' E 013°05'0 0.0
2017-Jul-14 06:00N 66°39' E 013°05'0 0.0
2017-Jul-14 05:30N 66°39' E 013°05'0 0.0
2017-Jul-14 05:00N 66°39' E 013°05'815.6
2017-Jul-14 04:30N 66°32' E 012°59'1223.0
2017-Jul-14 03:59N 66°20' E 013°00'714.8
2017-Jul-14 03:30N 66°23' E 012°43'917.4
2017-Jul-14 03:00N 66°22' E 012°22'2 3.8
2017-Jul-14 02:30N 66°23' E 012°26'1529.6
2017-Jul-14 02:00N 66°35' E 012°51'714.5
2017-Jul-14 01:30N 66°39' E 013°05'0 0.0
2017-Jul-14 01:00N 66°39' E 013°05'0 0.0
2017-Jul-14 00:31N 66°39' E 013°05'0 0.0
2017-Jul-14 00:01N 66°39' E 013°05'0 0.0
2017-Jul-13 23:30N 66°39' E 013°05'0 0.0
2017-Jul-13 23:00N 66°39' E 013°05'0 0.0
2017-Jul-13 22:30N 66°39' E 013°05'0 0.0
2017-Jul-13 22:00N 66°39' E 013°05'0 0.0
2017-Jul-13 21:30N 66°39' E 013°05'0 0.0
2017-Jul-13 21:00N 66°39' E 013°05'0 0.0
2017-Jul-13 20:30N 66°39' E 013°05'0 0.0
2017-Jul-13 20:00N 66°39' E 013°05'0 0.0
2017-Jul-13 19:30N 66°39' E 013°05'0 0.0
2017-Jul-13 18:59N 66°39' E 013°05'0 0.0
2017-Jul-13 18:30N 66°39' E 013°05'0 0.0
2017-Jul-13 18:00N 66°39' E 013°05'0 0.0
2017-Jul-13 17:30N 66°39' E 013°05'0 0.0
2017-Jul-13 17:00N 66°39' E 013°05'0 0.0
2017-Jul-13 16:30N 66°39' E 013°05'0 0.0
2017-Jul-13 15:59N 66°39' E 013°05'0 0.0
2017-Jul-13 15:30N 66°39' E 013°05'0 0.0
2017-Jul-13 15:01N 66°39' E 013°05'0 0.0
2017-Jul-13 14:30N 66°39' E 013°05'0 0.0
2017-Jul-13 14:00N 66°39' E 013°05'0 0.0
2017-Jul-13 13:31N 66°39' E 013°05'0 0.0
2017-Jul-13 13:00N 66°39' E 013°05'0 0.0
2017-Jul-13 12:30N 66°39' E 013°05'0 0.0
2017-Jul-13 12:00N 66°39' E 013°05'0 0.0
2017-Jul-13 11:30N 66°39' E 013°05'0 0.0
2017-Jul-13 11:00N 66°39' E 013°05'0 0.0
2017-Jul-13 10:30N 66°39' E 013°05'0 0.0
2017-Jul-13 10:00N 66°39' E 013°05'0 0.0
2017-Jul-13 09:30N 66°39' E 013°05'0 0.0
2017-Jul-13 09:01N 66°39' E 013°05'0 0.0
2017-Jul-13 08:30N 66°39' E 013°05'0 0.0
2017-Jul-13 08:00N 66°39' E 013°05'0 0.0
2017-Jul-13 07:30N 66°39' E 013°05'0 0.0
2017-Jul-13 06:59N 66°39' E 013°05'0 0.0
2017-Jul-13 06:30N 66°39' E 013°05'0 0.0
2017-Jul-13 06:00N 66°39' E 013°05'0 0.0
2017-Jul-13 05:30N 66°39' E 013°05'0 0.0
2017-Jul-13 05:00N 66°39' E 013°05'0 0.0
2017-Jul-13 04:30N 66°39' E 013°05'0 0.0
2017-Jul-13 03:59N 66°39' E 013°05'0 0.0
2017-Jul-13 03:30N 66°39' E 013°05'0 0.0
2017-Jul-13 03:00N 66°39' E 013°05'0 0.0
2017-Jul-13 02:30N 66°39' E 013°05'0 0.0
2017-Jul-13 02:00N 66°39' E 013°05'0 0.0
2017-Jul-13 01:30N 66°39' E 013°05'0 0.0
2017-Jul-13 01:00N 66°39' E 013°05'0 0.0
2017-Jul-13 00:30N 66°39' E 013°05'0 0.0
2017-Jul-13 00:00N 66°39' E 013°05'0 0.0
2017-Jul-12 23:30N 66°39' E 013°05'0 0.0
2017-Jul-12 23:00N 66°39' E 013°05'0 0.0
2017-Jul-12 22:30N 66°39' E 013°05'0 0.0
2017-Jul-12 22:00N 66°39' E 013°05'0 0.0
2017-Jul-12 21:30N 66°39' E 013°05'0 0.0
2017-Jul-12 21:00N 66°39' E 013°05'0 0.0
2017-Jul-12 20:30N 66°39' E 013°05'0 0.0
2017-Jul-12 20:00N 66°39' E 013°05'0 0.0
2017-Jul-12 19:30N 66°39' E 013°05'0 0.0
2017-Jul-12 19:00N 66°39' E 013°05'0 0.0
2017-Jul-12 18:30N 66°39' E 013°05'0 0.0
2017-Jul-12 18:00N 66°39' E 013°05'0 0.0
2017-Jul-12 17:30N 66°39' E 013°05'0 0.0
2017-Jul-12 16:59N 66°39' E 013°05'0 0.0
2017-Jul-12 16:30N 66°39' E 013°05'0 0.0
2017-Jul-12 16:00N 66°39' E 013°05'0 0.0
2017-Jul-12 15:31N 66°39' E 013°05'0 0.0
2017-Jul-12 15:00N 66°39' E 013°05'0 0.0
2017-Jul-12 13:59N 66°39' E 013°05'0 0.0
2017-Jul-12 13:31N 66°39' E 013°05'0 0.0
2017-Jul-12 13:00N 66°39' E 013°05'0 0.0
2017-Jul-12 12:30N 66°39' E 013°05'0 0.0
2017-Jul-12 12:00N 66°39' E 013°05'0 0.0
2017-Jul-12 11:30N 66°39' E 013°05'0 0.0
2017-Jul-12 11:00N 66°39' E 013°05'0 0.0
2017-Jul-12 10:30N 66°39' E 013°05'0 0.2
2017-Jul-12 10:00N 66°39' E 013°04'1327.2
2017-Jul-12 09:31N 66°27' E 012°51'3 6.7
2017-Jul-12 09:00N 66°24' E 012°50'2 4.2
2017-Jul-12 08:30N 66°26' E 012°49'1427.5
2017-Jul-12 08:00N 66°39' E 013°02'1 2.7
2017-Jul-12 07:30N 66°39' E 013°05'0 0.0
2017-Jul-12 07:00N 66°39' E 013°05'0 0.0
2017-Jul-12 06:29N 66°39' E 013°05'0 0.0
2017-Jul-12 06:00N 66°39' E 013°05'0 0.0
2017-Jul-12 05:30N 66°39' E 013°05'0 0.0
2017-Jul-12 05:00N 66°39' E 013°05'0 0.0
2017-Jul-12 04:30N 66°39' E 013°05'0 0.0
2017-Jul-12 04:00N 66°39' E 013°05'0 0.0
2017-Jul-12 03:30N 66°39' E 013°05'0 0.0
2017-Jul-12 03:00N 66°39' E 013°05'0 0.0
2017-Jul-12 02:30N 66°39' E 013°05'0 0.0
2017-Jul-12 02:00N 66°39' E 013°05'0 0.0
2017-Jul-12 01:30N 66°39' E 013°05'0 0.0
2017-Jul-12 00:59N 66°39' E 013°05'0 0.0
2017-Jul-12 00:30N 66°39' E 013°05'  
Track history (hours):
 
Tides and Currents Weather Stations Pressure Air Temp Water Temp Dewpoint Dewpoint Depression Visibility Wind Speed Wind Dir Waves Ship Positions

Eyr Myken

Last reported at 2017-Jul-22 00:30 UTC. Time now 2017-Jul-22 00:38 UTC.
Position N 66°39' E 013°05'.

Length 18 m.

Type: Medical transport. MMSI: 257054000.

Date/timePositionNaut miles runAvg speedWind from/ knotsBaromVisibWave heightAir tempDewpointWater temp
2017-Jul-22 00:30N 66°39' E 013°05'0 0.0
2017-Jul-22 00:00N 66°39' E 013°05'0 0.0
2017-Jul-21 23:29N 66°39' E 013°05'0 0.0
2017-Jul-21 23:00N 66°39' E 013°05'0 0.0
2017-Jul-21 22:30N 66°39' E 013°05'0 0.0
2017-Jul-21 22:00N 66°39' E 013°05'0 0.0
2017-Jul-21 21:30N 66°39' E 013°05'0 0.0
2017-Jul-21 21:00N 66°39' E 013°05'0 0.0
2017-Jul-21 20:30N 66°39' E 013°05'0 0.0
2017-Jul-21 20:00N 66°39' E 013°05'0 0.0
2017-Jul-21 19:29N 66°39' E 013°05'0 0.0
2017-Jul-21 19:00N 66°39' E 013°05'0 0.0
2017-Jul-21 18:30N 66°39' E 013°05'4 7.3
2017-Jul-21 18:00N 66°41' E 013°12'713.1
2017-Jul-21 17:29N 66°37' E 012°60'0 0.0
2017-Jul-21 17:00N 66°37' E 012°59'918.1
2017-Jul-21 16:30N 66°43' E 013°17'611.4
2017-Jul-21 16:00N 66°39' E 013°05'0 0.0
2017-Jul-21 15:30N 66°39' E 013°05'0 0.0
2017-Jul-21 15:00N 66°39' E 013°05'0 0.0
2017-Jul-21 14:30N 66°39' E 013°05'0 0.0
2017-Jul-21 14:00N 66°39' E 013°05'0 0.0
2017-Jul-21 13:30N 66°39' E 013°05'0 0.0
2017-Jul-21 13:00N 66°39' E 013°05'0 0.0
2017-Jul-21 12:30N 66°39' E 013°05'0 0.0
2017-Jul-21 12:00N 66°39' E 013°05'0 0.0
2017-Jul-21 11:30N 66°39' E 013°05'0 0.0
2017-Jul-21 11:00N 66°39' E 013°05'0 0.0
2017-Jul-21 10:30N 66°39' E 013°05'0 0.0
2017-Jul-21 09:59N 66°39' E 013°05'0 0.0
2017-Jul-21 09:30N 66°39' E 013°05'0 0.0
2017-Jul-21 09:00N 66°39' E 013°05'0 0.0
2017-Jul-21 08:30N 66°39' E 013°05'0 0.0
2017-Jul-21 08:00N 66°39' E 013°05'0 0.0
2017-Jul-21 07:30N 66°39' E 013°05'0 0.0
2017-Jul-21 07:00N 66°39' E 013°05'0 0.0
2017-Jul-21 06:30N 66°39' E 013°05'0 0.0
2017-Jul-21 06:00N 66°39' E 013°05'0 0.0
2017-Jul-21 05:30N 66°39' E 013°05'0 0.0
2017-Jul-21 05:00N 66°39' E 013°05'0 0.0
2017-Jul-21 04:30N 66°39' E 013°05'0 0.0
2017-Jul-21 04:00N 66°39' E 013°05'0 0.0
2017-Jul-21 03:30N 66°39' E 013°05'0 0.0
2017-Jul-21 03:00N 66°39' E 013°05'0 0.0
2017-Jul-21 02:30N 66°39' E 013°05'0 0.0
2017-Jul-21 02:00N 66°39' E 013°05'0 0.0
2017-Jul-21 01:30N 66°39' E 013°05'0 0.0
2017-Jul-21 01:00N 66°39' E 013°05'0 0.0
2017-Jul-21 00:30N 66°39' E 013°05'0 0.0
2017-Jul-21 00:00N 66°39' E 013°05'0 0.0
2017-Jul-20 23:29N 66°39' E 013°05'0 0.0
2017-Jul-20 23:00N 66°39' E 013°05'1223.4
2017-Jul-20 22:30N 66°28' E 013°03'816.6
2017-Jul-20 22:00N 66°22' E 012°48'5 9.2
2017-Jul-20 21:30N 66°22' E 012°37'1021.0
2017-Jul-20 21:00N 66°23' E 013°03'1020.6
2017-Jul-20 20:30N 66°33' E 013°02'612.7
2017-Jul-20 20:01N 66°39' E 013°05'0 0.0
2017-Jul-20 19:30N 66°39' E 013°05'0 0.0
2017-Jul-20 19:00N 66°39' E 013°05'0 0.0
2017-Jul-20 18:30N 66°39' E 013°05'0 0.0
2017-Jul-20 18:00N 66°39' E 013°05'611.7
2017-Jul-20 17:30N 66°43' E 013°17'3 6.6
2017-Jul-20 17:00N 66°41' E 013°10'3 4.9
2017-Jul-20 16:29N 66°39' E 013°05'0 0.0
2017-Jul-20 16:00N 66°39' E 013°05'0 0.0
2017-Jul-20 15:30N 66°39' E 013°05'0 0.0
2017-Jul-20 15:00N 66°39' E 013°05'0 0.0
2017-Jul-20 13:59N 66°39' E 013°05'0 0.0
2017-Jul-20 13:29N 66°39' E 013°05'0 0.0
2017-Jul-20 13:00N 66°39' E 013°05'0 0.0
2017-Jul-20 12:29N 66°39' E 013°05'0 0.0
2017-Jul-20 12:00N 66°39' E 013°05'0 0.0
2017-Jul-20 11:30N 66°39' E 013°05'0 0.0
2017-Jul-20 10:59N 66°39' E 013°05'0 0.0
2017-Jul-20 10:29N 66°39' E 013°05'0 0.0
2017-Jul-20 10:00N 66°39' E 013°05'0 0.0
2017-Jul-20 09:29N 66°39' E 013°05'0 0.0
2017-Jul-20 09:00N 66°39' E 013°05'0 0.0
2017-Jul-20 08:30N 66°39' E 013°05'0 0.0
2017-Jul-20 08:00N 66°39' E 013°05'0 0.0
2017-Jul-20 07:30N 66°39' E 013°05'0 0.0
2017-Jul-20 07:00N 66°39' E 013°05'0 0.0
2017-Jul-20 06:30N 66°39' E 013°05'0 0.0
2017-Jul-20 06:00N 66°39' E 013°05'0 0.0
2017-Jul-20 05:30N 66°39' E 013°05'0 0.0
2017-Jul-20 05:00N 66°39' E 013°05'0 0.0
2017-Jul-20 04:30N 66°39' E 013°05'0 0.0
2017-Jul-20 04:00N 66°39' E 013°05'0 0.0
2017-Jul-20 03:30N 66°39' E 013°05'0 0.0
2017-Jul-20 03:00N 66°39' E 013°05'0 0.0
2017-Jul-20 02:30N 66°39' E 013°05'0 0.0
2017-Jul-20 02:00N 66°39' E 013°05'0 0.0
2017-Jul-20 01:30N 66°39' E 013°05'0 0.0
2017-Jul-20 01:00N 66°39' E 013°05'0 0.0
2017-Jul-20 00:30N 66°39' E 013°05'0 0.0
2017-Jul-20 00:00N 66°39' E 013°05'0 0.0
2017-Jul-19 23:30N 66°39' E 013°05'0 0.0
2017-Jul-19 23:00N 66°39' E 013°05'0 0.0
2017-Jul-19 22:30N 66°39' E 013°05'0 0.0
2017-Jul-19 22:00N 66°39' E 013°05'0 0.0
2017-Jul-19 21:30N 66°39' E 013°05'0 0.1
2017-Jul-19 21:00N 66°39' E 013°05'3 6.2
2017-Jul-19 20:30N 66°42' E 013°07'1122.2
2017-Jul-19 20:00N 66°34' E 012°50'0 0.0
2017-Jul-19 19:30N 66°34' E 012°50'816.3
2017-Jul-19 19:00N 66°39' E 013°05'0 0.0
2017-Jul-19 18:30N 66°39' E 013°05'0 0.0
2017-Jul-19 18:00N 66°39' E 013°05'4 9.1
2017-Jul-19 17:30N 66°35' E 013°06'612.6
2017-Jul-19 17:00N 66°29' E 013°14'611.3
2017-Jul-19 16:30N 66°35' E 013°12'4 7.2
2017-Jul-19 16:00N 66°38' E 013°18'810.2
2017-Jul-19 15:10N 66°33' E 013°00'528.7
2017-Jul-19 15:00N 66°31' E 012°49'1427.5
2017-Jul-19 14:30N 66°22' E 012°23'0 0.5
2017-Jul-19 14:00N 66°22' E 012°22'0 0.0
2017-Jul-19 13:30N 66°22' E 012°22'510.0
2017-Jul-19 13:00N 66°26' E 012°30'1021.0
2017-Jul-19 12:31N 66°36' E 012°40'0 0.0
2017-Jul-19 12:01N 66°36' E 012°40'4 7.8
2017-Jul-19 11:30N 66°34' E 012°48'1 1.7
2017-Jul-19 11:00N 66°34' E 012°50'3 5.2
2017-Jul-19 10:30N 66°35' E 012°56'0 0.0
2017-Jul-19 10:00N 66°35' E 012°56'1 2.2
2017-Jul-19 09:30N 66°34' E 012°59'2 4.1
2017-Jul-19 09:00N 66°36' E 013°01'917.5
2017-Jul-19 08:30N 66°43' E 013°17'611.6
2017-Jul-19 08:00N 66°39' E 013°05'0 0.0
2017-Jul-19 07:30N 66°39' E 013°05'0 0.0
2017-Jul-19 07:00N 66°39' E 013°05'0 0.0
2017-Jul-19 06:30N 66°39' E 013°05'0 0.0
2017-Jul-19 06:00N 66°39' E 013°05'0 0.0
2017-Jul-19 05:29N 66°39' E 013°05'0 0.0
2017-Jul-19 05:00N 66°39' E 013°05'0 0.0
2017-Jul-19 04:30N 66°39' E 013°05'0 0.0
2017-Jul-19 04:00N 66°39' E 013°05'0 0.0
2017-Jul-19 03:29N 66°39' E 013°05'0 0.0
2017-Jul-19 03:00N 66°39' E 013°05'0 0.0
2017-Jul-19 02:30N 66°39' E 013°05'0 0.0
2017-Jul-19 02:00N 66°39' E 013°05'0 0.0
2017-Jul-19 01:30N 66°39' E 013°05'0 0.0
2017-Jul-19 01:00N 66°39' E 013°05'0 0.0
2017-Jul-19 00:29N 66°39' E 013°05'0 0.0
2017-Jul-19 00:00N 66°39' E 013°05'0 0.0
2017-Jul-18 23:30N 66°39' E 013°05'0 0.0
2017-Jul-18 23:00N 66°39' E 013°05'0 0.0
2017-Jul-18 22:30N 66°39' E 013°05'0 0.0
2017-Jul-18 21:59N 66°39' E 013°05'0 0.0
2017-Jul-18 21:30N 66°39' E 013°05'0 0.0
2017-Jul-18 21:00N 66°39' E 013°05'0 0.0
2017-Jul-18 20:30N 66°39' E 013°05'0 0.0
2017-Jul-18 20:00N 66°39' E 013°05'0 0.0
2017-Jul-18 19:30N 66°39' E 013°05'0 0.0
2017-Jul-18 19:00N 66°39' E 013°05'0 0.0
2017-Jul-18 18:30N 66°39' E 013°05'0 0.0
2017-Jul-18 18:00N 66°39' E 013°05'0 0.0
2017-Jul-18 17:30N 66°39' E 013°05'0 0.0
2017-Jul-18 17:00N 66°39' E 013°05'0 0.0
2017-Jul-18 16:30N 66°39' E 013°05'0 0.0
2017-Jul-18 15:59N 66°39' E 013°05'0 0.0
2017-Jul-18 15:30N 66°39' E 013°05'0 0.0
2017-Jul-18 15:00N 66°39' E 013°05'6 5.8
2017-Jul-18 14:00N 66°43' E 013°17'611.5
2017-Jul-18 13:30N 66°39' E 013°05'0 0.0
2017-Jul-18 13:00N 66°39' E 013°05'0 0.0
2017-Jul-18 12:30N 66°39' E 013°05'2 3.5
2017-Jul-18 12:00N 66°40' E 013°01'1427.7
2017-Jul-18 11:30N 66°46' E 012°29'0 0.5
2017-Jul-18 11:00N 66°46' E 012°29'1122.0
2017-Jul-18 10:30N 66°36' E 012°40'0 0.7
2017-Jul-18 10:00N 66°36' E 012°40'0 0.0
2017-Jul-18 09:30N 66°36' E 012°40'0 0.0
2017-Jul-18 09:00N 66°36' E 012°40'0 0.1
2017-Jul-18 08:30N 66°36' E 012°40'5 9.3
2017-Jul-18 08:00N 66°34' E 012°50'0 0.0
2017-Jul-18 07:30N 66°34' E 012°50'1020.9
2017-Jul-18 07:00N 66°42' E 013°05'3 5.6
2017-Jul-18 06:30N 66°39' E 013°05'0 0.0
2017-Jul-18 06:00N 66°39' E 013°05'0 0.0
2017-Jul-18 05:30N 66°39' E 013°05'0 0.0
2017-Jul-18 05:00N 66°39' E 013°05'0 0.0
2017-Jul-18 04:30N 66°39' E 013°05'0 0.0
2017-Jul-18 04:00N 66°39' E 013°05'0 0.0
2017-Jul-18 03:30N 66°39' E 013°05'0 0.0
2017-Jul-18 03:00N 66°39' E 013°05'0 0.0
2017-Jul-18 02:30N 66°39' E 013°05'0 0.0
2017-Jul-18 02:00N 66°39' E 013°05'0 0.0
2017-Jul-18 01:30N 66°39' E 013°05'0 0.0
2017-Jul-18 01:00N 66°39' E 013°05'0 0.0
2017-Jul-18 00:31N 66°39' E 013°05'0 0.0
2017-Jul-18 00:00N 66°39' E 013°05'0 0.0
2017-Jul-17 23:31N 66°39' E 013°05'0 0.0
2017-Jul-17 23:01N 66°39' E 013°05'0 0.0
2017-Jul-17 22:30N 66°39' E 013°05'0 0.0
2017-Jul-17 22:00N 66°39' E 013°05'0 0.0
2017-Jul-17 21:29N 66°39' E 013°05'0 0.0
2017-Jul-17 21:00N 66°39' E 013°05'0 0.0
2017-Jul-17 20:30N 66°39' E 013°05'0 0.0
2017-Jul-17 19:59N 66°39' E 013°05'0 0.0
2017-Jul-17 19:30N 66°39' E 013°05'0 0.0
2017-Jul-17 19:00N 66°39' E 013°05'0 0.0
2017-Jul-17 18:30N 66°39' E 013°05'0 0.0
2017-Jul-17 18:01N 66°39' E 013°05'0 0.0
2017-Jul-17 17:30N 66°39' E 013°05'0 0.0
2017-Jul-17 17:00N 66°39' E 013°05'0 0.0
2017-Jul-17 16:30N 66°39' E 013°05'0 0.0
2017-Jul-17 16:00N 66°39' E 013°05'0 0.0
2017-Jul-17 15:31N 66°39' E 013°05'0 0.0
2017-Jul-17 15:01N 66°39' E 013°05'0 0.0
2017-Jul-17 14:30N 66°39' E 013°05'0 0.0
2017-Jul-17 14:00N 66°39' E 013°05'0 0.0
2017-Jul-17 13:30N 66°39' E 013°05'0 0.0
2017-Jul-17 13:00N 66°39' E 013°05'0 0.0
2017-Jul-17 12:30N 66°39' E 013°05'0 0.0
2017-Jul-17 12:00N 66°39' E 013°05'0 0.0
2017-Jul-17 11:30N 66°39' E 013°05'0 0.0
2017-Jul-17 11:00N 66°39' E 013°05'0 0.0
2017-Jul-17 10:30N 66°39' E 013°05'0 0.0
2017-Jul-17 10:00N 66°39' E 013°05'611.6
2017-Jul-17 09:30N 66°43' E 013°17'611.3
2017-Jul-17 09:00N 66°39' E 013°05'0 0.0
2017-Jul-17 08:30N 66°39' E 013°05'0 0.0
2017-Jul-17 08:00N 66°39' E 013°05'0 0.0
2017-Jul-17 07:30N 66°39' E 013°05'0 0.0
2017-Jul-17 07:00N 66°39' E 013°05'0 0.0
2017-Jul-17 06:30N 66°39' E 013°05'0 0.0
2017-Jul-17 06:00N 66°39' E 013°05'0 0.0
2017-Jul-17 05:30N 66°39' E 013°05'0 0.0
2017-Jul-17 05:00N 66°39' E 013°05'0 0.0
2017-Jul-17 04:30N 66°39' E 013°05'0 0.0
2017-Jul-17 04:00N 66°39' E 013°05'0 0.0
2017-Jul-17 03:30N 66°39' E 013°05'0 0.0
2017-Jul-17 02:59N 66°39' E 013°05'0 0.0
2017-Jul-17 02:30N 66°39' E 013°05'0 0.0
2017-Jul-17 02:00N 66°39' E 013°05'0 0.0
2017-Jul-17 01:30N 66°39' E 013°05'0 0.0
2017-Jul-17 01:00N 66°39' E 013°05'0 0.0
2017-Jul-17 00:30N 66°39' E 013°05'0 0.0
2017-Jul-17 00:00N 66°39' E 013°05'0 0.0
2017-Jul-16 23:30N 66°39' E 013°05'0 0.0
2017-Jul-16 23:00N 66°39' E 013°05'0 0.0
2017-Jul-16 22:30N 66°39' E 013°05'0 0.0
2017-Jul-16 22:00N 66°39' E 013°05'0 0.0
2017-Jul-16 21:29N 66°39' E 013°05'0 0.0
2017-Jul-16 21:00N 66°39' E 013°05'0 0.0
2017-Jul-16 20:30N 66°39' E 013°05'0 0.0
2017-Jul-16 20:00N 66°39' E 013°05'0 0.0
2017-Jul-16 19:30N 66°39' E 013°05'0 0.0
2017-Jul-16 19:00N 66°39' E 013°05'0 0.0
2017-Jul-16 18:30N 66°39' E 013°05'0 0.0
2017-Jul-16 18:00N 66°39' E 013°05'0 0.0
2017-Jul-16 17:30N 66°39' E 013°05'0 0.0
2017-Jul-16 17:00N 66°39' E 013°05'0 0.0
2017-Jul-16 16:30N 66°39' E 013°05'0 0.0
2017-Jul-16 16:00N 66°39' E 013°05'0 0.0
2017-Jul-16 15:29N 66°39' E 013°05'0 0.0
2017-Jul-16 15:00N 66°39' E 013°05'5 9.1
2017-Jul-16 14:30N 66°43' E 013°13'918.9
2017-Jul-16 14:00N 66°33' E 013°11'1 2.7
2017-Jul-16 13:30N 66°33' E 013°08'713.9
2017-Jul-16 13:00N 66°34' E 012°50'0 0.0
2017-Jul-16 12:30N 66°34' E 012°50'0 0.0
2017-Jul-16 12:00N 66°34' E 012°50'4 8.3
2017-Jul-16 11:30N 66°37' E 012°57'1019.0
2017-Jul-16 11:00N 66°42' E 013°17'611.3
2017-Jul-16 10:30N 66°39' E 013°05'0 0.0
2017-Jul-16 10:00N 66°39' E 013°05'0 0.0
2017-Jul-16 09:29N 66°39' E 013°05'0 0.0
2017-Jul-16 09:00N 66°39' E 013°05'0 0.0
2017-Jul-16 08:30N 66°39' E 013°05'0 0.0
2017-Jul-16 08:00N 66°39' E 013°05'0 0.0
2017-Jul-16 07:30N 66°39' E 013°05'0 0.0
2017-Jul-16 07:00N 66°39' E 013°05'0 0.0
2017-Jul-16 06:30N 66°39' E 013°05'0 0.0
2017-Jul-16 06:00N 66°39' E 013°05'0 0.0
2017-Jul-16 05:29N 66°39' E 013°05'0 0.0
2017-Jul-16 04:59N 66°39' E 013°05'0 0.0
2017-Jul-16 04:30N 66°39' E 013°05'0 0.0
2017-Jul-16 03:59N 66°39' E 013°05'0 0.0
2017-Jul-16 03:30N 66°39' E 013°05'0 0.0
2017-Jul-16 03:00N 66°39' E 013°05'0 0.0
2017-Jul-16 02:29N 66°39' E 013°05'0 0.0
2017-Jul-16 02:00N 66°39' E 013°05'0 0.0
2017-Jul-16 01:30N 66°39' E 013°05'0 0.0
2017-Jul-16 01:00N 66°39' E 013°05'0 0.0
2017-Jul-16 00:30N 66°39' E 013°05'0 0.0
2017-Jul-16 00:00N 66°39' E 013°05'0 0.0
2017-Jul-15 23:29N 66°39' E 013°05'0 0.0
2017-Jul-15 23:00N 66°39' E 013°05'0 0.0
2017-Jul-15 22:30N 66°39' E 013°05'0 0.0
2017-Jul-15 22:00N 66°39' E 013°05'0 0.0
2017-Jul-15 21:30N 66°39' E 013°05'0 0.0
2017-Jul-15 21:00N 66°39' E 013°05'0 0.0
2017-Jul-15 20:29N 66°39' E 013°05'0 0.0
2017-Jul-15 19:59N 66°39' E 013°05'0 0.0
2017-Jul-15 19:30N 66°39' E 013°05'0 0.0
2017-Jul-15 19:00N 66°39' E 013°05'0 0.0
2017-Jul-15 18:30N 66°39' E 013°05'0 0.0
2017-Jul-15 18:00N 66°39' E 013°05'0 0.0
2017-Jul-15 17:29N 66°39' E 013°05'0 0.0
2017-Jul-15 17:00N 66°39' E 013°05'0 0.0
2017-Jul-15 16:30N 66°39' E 013°05'0 0.0
2017-Jul-15 15:59N 66°39' E 013°05'0 0.0
2017-Jul-15 15:30N 66°39' E 013°05'0 0.0
2017-Jul-15 15:00N 66°39' E 013°05'0 0.0
2017-Jul-15 14:00N 66°39' E 013°05'4 7.4
2017-Jul-15 13:30N 66°36' E 013°10'611.4
2017-Jul-15 13:00N 66°31' E 013°13'1224.9
2017-Jul-15 12:30N 66°40' E 012°53'1121.8
2017-Jul-15 12:00N 66°46' E 012°29'0 0.0
2017-Jul-15 11:30N 66°46' E 012°29'0 0.0
2017-Jul-15 11:00N 66°46' E 012°29'612.0
2017-Jul-15 10:30N 66°46' E 012°44'1326.2
2017-Jul-15 09:59N 66°43' E 013°17'611.7
2017-Jul-15 09:30N 66°39' E 013°05'0 0.0
2017-Jul-15 09:00N 66°39' E 013°05'0 0.0
2017-Jul-15 08:30N 66°39' E 013°05'0 0.0
2017-Jul-15 08:00N 66°39' E 013°05'0 0.0
2017-Jul-15 07:30N 66°39' E 013°05'0 0.0
2017-Jul-15 07:00N 66°39' E 013°05'0 0.0
2017-Jul-15 06:30N 66°39' E 013°05'0 0.0
2017-Jul-15 06:00N 66°39' E 013°05'0 0.0
2017-Jul-15 05:30N 66°39' E 013°05'0 0.0
2017-Jul-15 05:00N 66°39' E 013°05'0 0.0
2017-Jul-15 04:30N 66°39' E 013°05'0 0.0
2017-Jul-15 04:00N 66°39' E 013°05'0 0.0
2017-Jul-15 03:30N 66°39' E 013°05'0 0.0
2017-Jul-15 03:00N 66°39' E 013°05'0 0.0
2017-Jul-15 02:30N 66°39' E 013°05'0 0.0
2017-Jul-15 02:00N 66°39' E 013°05'0 0.0
2017-Jul-15 01:30N 66°39' E 013°05'0 0.0
2017-Jul-15 01:00N 66°39' E 013°05'0 0.0
2017-Jul-15 00:30N 66°39' E 013°05'0 0.0
2017-Jul-15 00:00N 66°39' E 013°05'0 0.0
2017-Jul-14 23:30N 66°39' E 013°05'0 0.0
2017-Jul-14 23:00N 66°39' E 013°05'0 0.0
2017-Jul-14 22:30N 66°39' E 013°05'0 0.0
2017-Jul-14 22:00N 66°39' E 013°05'0 0.0
2017-Jul-14 21:30N 66°39' E 013°05'0 0.0
2017-Jul-14 21:00N 66°39' E 013°05'0 0.0
2017-Jul-14 20:30N 66°39' E 013°05'0 0.0
2017-Jul-14 20:00N 66°39' E 013°05'0 0.0
2017-Jul-14 19:30N 66°39' E 013°05'0 0.0
2017-Jul-14 19:00N 66°39' E 013°05'0 0.0
2017-Jul-14 18:30N 66°39' E 013°05'0 0.0
2017-Jul-14 18:00N 66°39' E 013°05'0 0.0
2017-Jul-14 17:30N 66°39' E 013°05'0 0.0
2017-Jul-14 17:00N 66°39' E 013°05'0 0.0
2017-Jul-14 16:30N 66°39' E 013°05'0 0.0
2017-Jul-14 16:00N 66°39' E 013°05'0 0.0
2017-Jul-14 15:30N 66°39' E 013°05'0 0.0
2017-Jul-14 15:00N 66°39' E 013°05'0 0.0
2017-Jul-14 14:30N 66°39' E 013°05'0 0.0
2017-Jul-14 14:00N 66°39' E 013°05'0 0.0
2017-Jul-14 11:28N 66°39' E 013°05'0 0.0
2017-Jul-14 11:00N 66°39' E 013°05'0 0.0
2017-Jul-14 10:30N 66°39' E 013°05'0 0.0
2017-Jul-14 10:00N 66°39' E 013°05'0 0.0
2017-Jul-14 09:30N 66°39' E 013°05'0 0.0
2017-Jul-14 09:00N 66°39' E 013°05'0 0.0
2017-Jul-14 08:30N 66°39' E 013°05'0 0.0
2017-Jul-14 08:00N 66°39' E 013°05'0 0.0
2017-Jul-14 07:30N 66°39' E 013°05'0 0.0
2017-Jul-14 07:00N 66°39' E 013°05'0 0.0
2017-Jul-14 06:30N 66°39' E 013°05'0 0.0
2017-Jul-14 06:00N 66°39' E 013°05'0 0.0
2017-Jul-14 05:30N 66°39' E 013°05'0 0.0
2017-Jul-14 05:00N 66°39' E 013°05'815.6
2017-Jul-14 04:30N 66°32' E 012°59'1223.0
2017-Jul-14 03:59N 66°20' E 013°00'714.8
2017-Jul-14 03:30N 66°23' E 012°43'917.4
2017-Jul-14 03:00N 66°22' E 012°22'2 3.8
2017-Jul-14 02:30N 66°23' E 012°26'1529.6
2017-Jul-14 02:00N 66°35' E 012°51'714.5
2017-Jul-14 01:30N 66°39' E 013°05'0 0.0
2017-Jul-14 01:00N 66°39' E 013°05'0 0.0
2017-Jul-14 00:31N 66°39' E 013°05'0 0.0
2017-Jul-14 00:01N 66°39' E 013°05'0 0.0
2017-Jul-13 23:30N 66°39' E 013°05'0 0.0
2017-Jul-13 23:00N 66°39' E 013°05'0 0.0
2017-Jul-13 22:30N 66°39' E 013°05'0 0.0
2017-Jul-13 22:00N 66°39' E 013°05'0 0.0
2017-Jul-13 21:30N 66°39' E 013°05'0 0.0
2017-Jul-13 21:00N 66°39' E 013°05'0 0.0
2017-Jul-13 20:30N 66°39' E 013°05'0 0.0
2017-Jul-13 20:00N 66°39' E 013°05'0 0.0
2017-Jul-13 19:30N 66°39' E 013°05'0 0.0
2017-Jul-13 18:59N 66°39' E 013°05'0 0.0
2017-Jul-13 18:30N 66°39' E 013°05'0 0.0
2017-Jul-13 18:00N 66°39' E 013°05'0 0.0
2017-Jul-13 17:30N 66°39' E 013°05'0 0.0
2017-Jul-13 17:00N 66°39' E 013°05'0 0.0
2017-Jul-13 16:30N 66°39' E 013°05'0 0.0
2017-Jul-13 15:59N 66°39' E 013°05'0 0.0
2017-Jul-13 15:30N 66°39' E 013°05'0 0.0
2017-Jul-13 15:01N 66°39' E 013°05'0 0.0
2017-Jul-13 14:30N 66°39' E 013°05'0 0.0
2017-Jul-13 14:00N 66°39' E 013°05'0 0.0
2017-Jul-13 13:31N 66°39' E 013°05'0 0.0
2017-Jul-13 13:00N 66°39' E 013°05'0 0.0
2017-Jul-13 12:30N 66°39' E 013°05'0 0.0
2017-Jul-13 12:00N 66°39' E 013°05'0 0.0
2017-Jul-13 11:30N 66°39' E 013°05'0 0.0
2017-Jul-13 11:00N 66°39' E 013°05'0 0.0
2017-Jul-13 10:30N 66°39' E 013°05'0 0.0
2017-Jul-13 10:00N 66°39' E 013°05'0 0.0
2017-Jul-13 09:30N 66°39' E 013°05'0 0.0
2017-Jul-13 09:01N 66°39' E 013°05'0 0.0
2017-Jul-13 08:30N 66°39' E 013°05'0 0.0
2017-Jul-13 08:00N 66°39' E 013°05'0 0.0
2017-Jul-13 07:30N 66°39' E 013°05'0 0.0
2017-Jul-13 06:59N 66°39' E 013°05'0 0.0
2017-Jul-13 06:30N 66°39' E 013°05'0 0.0
2017-Jul-13 06:00N 66°39' E 013°05'0 0.0
2017-Jul-13 05:30N 66°39' E 013°05'0 0.0
2017-Jul-13 05:00N 66°39' E 013°05'0 0.0
2017-Jul-13 04:30N 66°39' E 013°05'0 0.0
2017-Jul-13 03:59N 66°39' E 013°05'0 0.0
2017-Jul-13 03:30N 66°39' E 013°05'0 0.0
2017-Jul-13 03:00N 66°39' E 013°05'0 0.0
2017-Jul-13 02:30N 66°39' E 013°05'0 0.0
2017-Jul-13 02:00N 66°39' E 013°05'0 0.0
2017-Jul-13 01:30N 66°39' E 013°05'0 0.0
2017-Jul-13 01:00N 66°39' E 013°05'0 0.0
2017-Jul-13 00:30N 66°39' E 013°05'0 0.0
2017-Jul-13 00:00N 66°39' E 013°05'0 0.0
2017-Jul-12 23:30N 66°39' E 013°05'0 0.0
2017-Jul-12 23:00N 66°39' E 013°05'0 0.0
2017-Jul-12 22:30N 66°39' E 013°05'0 0.0
2017-Jul-12 22:00N 66°39' E 013°05'0 0.0
2017-Jul-12 21:30N 66°39' E 013°05'0 0.0
2017-Jul-12 21:00N 66°39' E 013°05'0 0.0
2017-Jul-12 20:30N 66°39' E 013°05'0 0.0
2017-Jul-12 20:00N 66°39' E 013°05'0 0.0
2017-Jul-12 19:30N 66°39' E 013°05'0 0.0
2017-Jul-12 19:00N 66°39' E 013°05'0 0.0
2017-Jul-12 18:30N 66°39' E 013°05'0 0.0
2017-Jul-12 18:00N 66°39' E 013°05'0 0.0
2017-Jul-12 17:30N 66°39' E 013°05'0 0.0
2017-Jul-12 16:59N 66°39' E 013°05'0 0.0
2017-Jul-12 16:30N 66°39' E 013°05'0 0.0
2017-Jul-12 16:00N 66°39' E 013°05'0 0.0
2017-Jul-12 15:31N 66°39' E 013°05'0 0.0
2017-Jul-12 15:00N 66°39' E 013°05'0 0.0
2017-Jul-12 13:59N 66°39' E 013°05'0 0.0
2017-Jul-12 13:31N 66°39' E 013°05'0 0.0
2017-Jul-12 13:00N 66°39' E 013°05'0 0.0
2017-Jul-12 12:30N 66°39' E 013°05'0 0.0
2017-Jul-12 12:00N 66°39' E 013°05'0 0.0
2017-Jul-12 11:30N 66°39' E 013°05'0 0.0
2017-Jul-12 11:00N 66°39' E 013°05'0 0.0
2017-Jul-12 10:30N 66°39' E 013°05'0 0.2
2017-Jul-12 10:00N 66°39' E 013°04'1327.2
2017-Jul-12 09:31N 66°27' E 012°51'3 6.7
2017-Jul-12 09:00N 66°24' E 012°50'2 4.2
2017-Jul-12 08:30N 66°26' E 012°49'1427.5
2017-Jul-12 08:00N 66°39' E 013°02'1 2.7
2017-Jul-12 07:30N 66°39' E 013°05'0 0.0
2017-Jul-12 07:00N 66°39' E 013°05'0 0.0
2017-Jul-12 06:29N 66°39' E 013°05'0 0.0
2017-Jul-12 06:00N 66°39' E 013°05'0 0.0
2017-Jul-12 05:30N 66°39' E 013°05'0 0.0
2017-Jul-12 05:00N 66°39' E 013°05'0 0.0
2017-Jul-12 04:30N 66°39' E 013°05'0 0.0
2017-Jul-12 04:00N 66°39' E 013°05'0 0.0
2017-Jul-12 03:30N 66°39' E 013°05'0 0.0
2017-Jul-12 03:00N 66°39' E 013°05'0 0.0
2017-Jul-12 02:30N 66°39' E 013°05'0 0.0
2017-Jul-12 02:00N 66°39' E 013°05'0 0.0
2017-Jul-12 01:30N 66°39' E 013°05'0 0.0
2017-Jul-12 00:59N 66°39' E 013°05'0 0.0
2017-Jul-12 00:30N 66°39' E 013°05'  

Dump ship's entire track history